Celeste Of Solent — MBGX2 — position and weather

sailwx.info

Track history (hours):
 
Tides and Currents Weather Stations Pressure Air Temp Water Temp Dewpoint Dewpoint Depression Visibility Wind Speed Wind Dir Waves Ship Positions

Celeste Of Solent

Last reported at 2018-Jan-12 14:59 UTC. Time now 2018-Feb-18 03:37 UTC.
Position N 17°05' W 061°40'.
Warning: this ship's position is 36 days out of date.

Length 19 m.

Type: Sailing vessel. MMSI: 235031438.

Date/timePositionNaut miles runAvg speedWind from/ knotsBaromVisibWave heightAir tempDewpointWater temp
2018-Jan-12 14:59N 17°05' W 061°40'0 0.0
2018-Jan-12 14:29N 17°05' W 061°40'0 0.0
2018-Jan-12 13:59N 17°05' W 061°40'0 0.0
2018-Jan-12 13:29N 17°05' W 061°40'0 0.0
2018-Jan-12 12:56N 17°05' W 061°40'0 0.0
2018-Jan-12 12:29N 17°05' W 061°40'0 0.0
2018-Jan-12 11:59N 17°05' W 061°40'0 0.0
2018-Jan-12 11:29N 17°05' W 061°40'0 0.0
2018-Jan-12 10:59N 17°05' W 061°40'0 0.0
2018-Jan-12 10:29N 17°05' W 061°40'0 0.0
2018-Jan-12 09:59N 17°05' W 061°40'0 0.0
2018-Jan-12 09:29N 17°05' W 061°40'0 0.0
2018-Jan-12 08:59N 17°05' W 061°40'0 0.0
2018-Jan-12 08:29N 17°05' W 061°40'0 0.0
2018-Jan-12 07:59N 17°05' W 061°40'0 0.0
2018-Jan-12 07:29N 17°05' W 061°40'0 0.0
2018-Jan-12 06:59N 17°05' W 061°40'0 0.0
2018-Jan-12 06:29N 17°05' W 061°40'0 0.0
2018-Jan-12 05:59N 17°05' W 061°40'0 0.0
2018-Jan-12 05:29N 17°05' W 061°40'0 0.0
2018-Jan-12 04:59N 17°05' W 061°40'0 0.0
2018-Jan-12 04:29N 17°05' W 061°40'0 0.0
2018-Jan-12 03:59N 17°05' W 061°40'0 0.0
2018-Jan-12 03:29N 17°05' W 061°40'0 0.0
2018-Jan-12 02:59N 17°05' W 061°40'0 0.0
2018-Jan-12 02:29N 17°05' W 061°40'0 0.0
2018-Jan-12 01:59N 17°05' W 061°40'0 0.0
2018-Jan-12 01:26N 17°05' W 061°40'0 0.0
2018-Jan-12 00:59N 17°05' W 061°40'0 0.0
2018-Jan-12 00:29N 17°05' W 061°40'0 0.0
2018-Jan-11 23:59N 17°05' W 061°40'0 0.0
2018-Jan-11 23:29N 17°05' W 061°40'0 0.0
2018-Jan-11 22:59N 17°05' W 061°40'0 0.0
2018-Jan-11 22:29N 17°05' W 061°40'0 0.0
2018-Jan-11 21:59N 17°05' W 061°40'0 0.0
2018-Jan-11 21:30N 17°05' W 061°40'1 2.7
2018-Jan-11 21:00N 17°04' W 061°39'3 6.8
2018-Jan-11 20:29N 17°00' W 061°40'3 6.1
2018-Jan-11 19:59N 16°57' W 061°42'2 4.0
2018-Jan-11 19:30N 16°56' W 061°43'3 5.5
2018-Jan-11 18:59N 16°58' W 061°45'2 4.7
2018-Jan-11 18:30N 17°00' W 061°46'0 0.5
2018-Jan-11 17:59N 17°00' W 061°46'0 0.0
2018-Jan-11 17:29N 17°00' W 061°46'0 0.0
2018-Jan-11 16:59N 17°00' W 061°46'0 0.0
2018-Jan-11 16:29N 17°00' W 061°46'0 0.0
2018-Jan-11 15:59N 17°00' W 061°46'0 0.0
2018-Jan-11 15:29N 17°00' W 061°46'0 0.0
2018-Jan-11 14:59N 17°00' W 061°46'0 0.0
2018-Jan-11 14:29N 17°00' W 061°46'0 0.0
2018-Jan-11 13:56N 17°00' W 061°46'0 0.0
2018-Jan-11 13:29N 17°00' W 061°46'0 0.0
2018-Jan-11 12:59N 17°00' W 061°46'0 0.0
2018-Jan-11 12:29N 17°00' W 061°46'0 0.0
2018-Jan-11 11:59N 17°00' W 061°46'0 0.0
2018-Jan-11 11:29N 17°00' W 061°46'0 0.0
2018-Jan-11 10:59N 17°00' W 061°46'0 0.0
2018-Jan-11 10:29N 17°00' W 061°46'0 0.0
2018-Jan-11 09:59N 17°00' W 061°46'0 0.0
2018-Jan-11 09:29N 17°00' W 061°46'0 0.0
2018-Jan-11 08:59N 17°00' W 061°46'0 0.0
2018-Jan-11 08:29N 17°00' W 061°46'0 0.0
2018-Jan-11 07:59N 17°00' W 061°46'0 0.0
2018-Jan-11 07:29N 17°00' W 061°46'0 0.0
2018-Jan-11 06:59N 17°00' W 061°46'0 0.0
2018-Jan-11 06:29N 17°00' W 061°46'0 0.0
2018-Jan-11 05:59N 17°00' W 061°46'0 0.0
2018-Jan-11 05:29N 17°00' W 061°46'0 0.0
2018-Jan-11 04:59N 17°00' W 061°46'0 0.0
2018-Jan-11 04:29N 17°00' W 061°46'0 0.0
2018-Jan-11 03:59N 17°00' W 061°46'0 0.0
2018-Jan-11 03:29N 17°00' W 061°46'0 0.0
2018-Jan-11 02:59N 17°00' W 061°46'0 0.0
2018-Jan-11 02:29N 17°00' W 061°46'0 0.0
2018-Jan-11 01:59N 17°00' W 061°46'0 0.0
2018-Jan-11 01:29N 17°00' W 061°46'0 0.0
2018-Jan-11 00:59N 17°00' W 061°46'0 0.0
2018-Jan-11 00:29N 17°00' W 061°46'0 0.0
2018-Jan-10 23:59N 17°00' W 061°46'0 0.0
2018-Jan-10 23:29N 17°00' W 061°46'0 0.0
2018-Jan-10 22:59N 17°00' W 061°46'0 0.0
2018-Jan-10 22:29N 17°00' W 061°46'0 0.0
2018-Jan-10 21:59N 17°00' W 061°46'0 0.0
2018-Jan-10 21:29N 17°00' W 061°46'0 0.0
2018-Jan-10 20:59N 17°00' W 061°46'0 0.0
2018-Jan-10 20:29N 17°00' W 061°46'0 0.0
2018-Jan-10 19:59N 17°00' W 061°46'0 0.0
2018-Jan-10 19:29N 17°00' W 061°46'0 0.0
2018-Jan-10 18:59N 17°00' W 061°46'0 0.0
2018-Jan-10 18:29N 17°00' W 061°46'0 0.0
2018-Jan-10 17:48N 17°00' W 061°46'0 0.2
2018-Jan-10 17:29N 17°00' W 061°46'1 1.5
2018-Jan-10 17:00N 16°60' W 061°45'3 6.2
2018-Jan-10 16:27N 16°56' W 061°45'4 9.4
2018-Jan-10 16:00N 16°52' W 061°45'5 9.6
2018-Jan-10 15:30N 16°47' W 061°46'5 9.8
2018-Jan-10 15:00N 16°42' W 061°46'  
2018-Jan-04 02:08N 16°27' W 061°47'1 8.9
2018-Jan-04 01:59N 16°28' W 061°47'4 9.3
2018-Jan-04 01:30N 16°33' W 061°46'4 8.6
2018-Jan-04 00:59N 16°37' W 061°47'4 7.7
2018-Jan-04 00:30N 16°41' W 061°47'3 6.9
2018-Jan-04 00:00N 16°44' W 061°47'4 7.4
2018-Jan-03 23:30N 16°48' W 061°48'4 7.2
2018-Jan-03 23:00N 16°51' W 061°49'3 6.6
2018-Jan-03 22:30N 16°55' W 061°49'3 6.6
2018-Jan-03 22:00N 16°58' W 061°50'3 5.1
2018-Jan-03 21:30N 17°00' W 061°50'0 0.1
2018-Jan-03 20:59N 17°00' W 061°50'0 0.0
2018-Jan-03 20:29N 17°00' W 061°50'0 0.0
2018-Jan-03 19:59N 17°00' W 061°50'0 0.0
2018-Jan-03 19:29N 17°00' W 061°50'0 0.0
2018-Jan-03 18:59N 17°00' W 061°50'0 0.0
2018-Jan-03 18:29N 17°00' W 061°50'1 2.7
2018-Jan-03 18:00N 17°01' W 061°51'4 4.3
2018-Jan-03 17:11N 17°03' W 061°54'1 4.9
2018-Jan-03 17:00N 17°04' W 061°54'1 0.1
2018-Jan-02 23:09N 17°04' W 061°53'0 3.4
2018-Jan-02 23:00N 17°04' W 061°53'2 3.6
2018-Jan-02 22:30N 17°05' W 061°55'2 3.9
2018-Jan-02 22:00N 17°07' W 061°55'4 8.2
2018-Jan-02 21:30N 17°11' W 061°55'4 8.6
2018-Jan-02 21:00N 17°15' W 061°54'4 8.8
2018-Jan-02 20:31N 17°20' W 061°54'4 8.7
2018-Jan-02 20:00N 17°24' W 061°54'4 7.9
2018-Jan-02 19:30N 17°28' W 061°54'5 8.2
2018-Jan-02 18:54N 17°33' W 061°54'  
Track history (hours):
 
Tides and Currents Weather Stations Pressure Air Temp Water Temp Dewpoint Dewpoint Depression Visibility Wind Speed Wind Dir Waves Ship Positions

Celeste Of Solent

Last reported at 2018-Jan-12 14:59 UTC. Time now 2018-Feb-18 03:37 UTC.
Position N 17°05' W 061°40'.
Warning: this ship's position is 36 days out of date.

Length 19 m.

Type: Sailing vessel. MMSI: 235031438.

Date/timePositionNaut miles runAvg speedWind from/ knotsBaromVisibWave heightAir tempDewpointWater temp
2018-Jan-12 14:59N 17°05' W 061°40'0 0.0
2018-Jan-12 14:29N 17°05' W 061°40'0 0.0
2018-Jan-12 13:59N 17°05' W 061°40'0 0.0
2018-Jan-12 13:29N 17°05' W 061°40'0 0.0
2018-Jan-12 12:56N 17°05' W 061°40'0 0.0
2018-Jan-12 12:29N 17°05' W 061°40'0 0.0
2018-Jan-12 11:59N 17°05' W 061°40'0 0.0
2018-Jan-12 11:29N 17°05' W 061°40'0 0.0
2018-Jan-12 10:59N 17°05' W 061°40'0 0.0
2018-Jan-12 10:29N 17°05' W 061°40'0 0.0
2018-Jan-12 09:59N 17°05' W 061°40'0 0.0
2018-Jan-12 09:29N 17°05' W 061°40'0 0.0
2018-Jan-12 08:59N 17°05' W 061°40'0 0.0
2018-Jan-12 08:29N 17°05' W 061°40'0 0.0
2018-Jan-12 07:59N 17°05' W 061°40'0 0.0
2018-Jan-12 07:29N 17°05' W 061°40'0 0.0
2018-Jan-12 06:59N 17°05' W 061°40'0 0.0
2018-Jan-12 06:29N 17°05' W 061°40'0 0.0
2018-Jan-12 05:59N 17°05' W 061°40'0 0.0
2018-Jan-12 05:29N 17°05' W 061°40'0 0.0
2018-Jan-12 04:59N 17°05' W 061°40'0 0.0
2018-Jan-12 04:29N 17°05' W 061°40'0 0.0
2018-Jan-12 03:59N 17°05' W 061°40'0 0.0
2018-Jan-12 03:29N 17°05' W 061°40'0 0.0
2018-Jan-12 02:59N 17°05' W 061°40'0 0.0
2018-Jan-12 02:29N 17°05' W 061°40'0 0.0
2018-Jan-12 01:59N 17°05' W 061°40'0 0.0
2018-Jan-12 01:26N 17°05' W 061°40'0 0.0
2018-Jan-12 00:59N 17°05' W 061°40'0 0.0
2018-Jan-12 00:29N 17°05' W 061°40'0 0.0
2018-Jan-11 23:59N 17°05' W 061°40'0 0.0
2018-Jan-11 23:29N 17°05' W 061°40'0 0.0
2018-Jan-11 22:59N 17°05' W 061°40'0 0.0
2018-Jan-11 22:29N 17°05' W 061°40'0 0.0
2018-Jan-11 21:59N 17°05' W 061°40'0 0.0
2018-Jan-11 21:30N 17°05' W 061°40'1 2.7
2018-Jan-11 21:00N 17°04' W 061°39'3 6.8
2018-Jan-11 20:29N 17°00' W 061°40'3 6.1
2018-Jan-11 19:59N 16°57' W 061°42'2 4.0
2018-Jan-11 19:30N 16°56' W 061°43'3 5.5
2018-Jan-11 18:59N 16°58' W 061°45'2 4.7
2018-Jan-11 18:30N 17°00' W 061°46'0 0.5
2018-Jan-11 17:59N 17°00' W 061°46'0 0.0
2018-Jan-11 17:29N 17°00' W 061°46'0 0.0
2018-Jan-11 16:59N 17°00' W 061°46'0 0.0
2018-Jan-11 16:29N 17°00' W 061°46'0 0.0
2018-Jan-11 15:59N 17°00' W 061°46'0 0.0
2018-Jan-11 15:29N 17°00' W 061°46'0 0.0
2018-Jan-11 14:59N 17°00' W 061°46'0 0.0
2018-Jan-11 14:29N 17°00' W 061°46'0 0.0
2018-Jan-11 13:56N 17°00' W 061°46'0 0.0
2018-Jan-11 13:29N 17°00' W 061°46'0 0.0
2018-Jan-11 12:59N 17°00' W 061°46'0 0.0
2018-Jan-11 12:29N 17°00' W 061°46'0 0.0
2018-Jan-11 11:59N 17°00' W 061°46'0 0.0
2018-Jan-11 11:29N 17°00' W 061°46'0 0.0
2018-Jan-11 10:59N 17°00' W 061°46'0 0.0
2018-Jan-11 10:29N 17°00' W 061°46'0 0.0
2018-Jan-11 09:59N 17°00' W 061°46'0 0.0
2018-Jan-11 09:29N 17°00' W 061°46'0 0.0
2018-Jan-11 08:59N 17°00' W 061°46'0 0.0
2018-Jan-11 08:29N 17°00' W 061°46'0 0.0
2018-Jan-11 07:59N 17°00' W 061°46'0 0.0
2018-Jan-11 07:29N 17°00' W 061°46'0 0.0
2018-Jan-11 06:59N 17°00' W 061°46'0 0.0
2018-Jan-11 06:29N 17°00' W 061°46'0 0.0
2018-Jan-11 05:59N 17°00' W 061°46'0 0.0
2018-Jan-11 05:29N 17°00' W 061°46'0 0.0
2018-Jan-11 04:59N 17°00' W 061°46'0 0.0
2018-Jan-11 04:29N 17°00' W 061°46'0 0.0
2018-Jan-11 03:59N 17°00' W 061°46'0 0.0
2018-Jan-11 03:29N 17°00' W 061°46'0 0.0
2018-Jan-11 02:59N 17°00' W 061°46'0 0.0
2018-Jan-11 02:29N 17°00' W 061°46'0 0.0
2018-Jan-11 01:59N 17°00' W 061°46'0 0.0
2018-Jan-11 01:29N 17°00' W 061°46'0 0.0
2018-Jan-11 00:59N 17°00' W 061°46'0 0.0
2018-Jan-11 00:29N 17°00' W 061°46'0 0.0
2018-Jan-10 23:59N 17°00' W 061°46'0 0.0
2018-Jan-10 23:29N 17°00' W 061°46'0 0.0
2018-Jan-10 22:59N 17°00' W 061°46'0 0.0
2018-Jan-10 22:29N 17°00' W 061°46'0 0.0
2018-Jan-10 21:59N 17°00' W 061°46'0 0.0
2018-Jan-10 21:29N 17°00' W 061°46'0 0.0
2018-Jan-10 20:59N 17°00' W 061°46'0 0.0
2018-Jan-10 20:29N 17°00' W 061°46'0 0.0
2018-Jan-10 19:59N 17°00' W 061°46'0 0.0
2018-Jan-10 19:29N 17°00' W 061°46'0 0.0
2018-Jan-10 18:59N 17°00' W 061°46'0 0.0
2018-Jan-10 18:29N 17°00' W 061°46'0 0.0
2018-Jan-10 17:48N 17°00' W 061°46'0 0.2
2018-Jan-10 17:29N 17°00' W 061°46'1 1.5
2018-Jan-10 17:00N 16°60' W 061°45'3 6.2
2018-Jan-10 16:27N 16°56' W 061°45'4 9.4
2018-Jan-10 16:00N 16°52' W 061°45'5 9.6
2018-Jan-10 15:30N 16°47' W 061°46'5 9.8
2018-Jan-10 15:00N 16°42' W 061°46'  
2018-Jan-04 02:08N 16°27' W 061°47'1 8.9
2018-Jan-04 01:59N 16°28' W 061°47'4 9.3
2018-Jan-04 01:30N 16°33' W 061°46'4 8.6
2018-Jan-04 00:59N 16°37' W 061°47'4 7.7
2018-Jan-04 00:30N 16°41' W 061°47'3 6.9
2018-Jan-04 00:00N 16°44' W 061°47'4 7.4
2018-Jan-03 23:30N 16°48' W 061°48'4 7.2
2018-Jan-03 23:00N 16°51' W 061°49'3 6.6
2018-Jan-03 22:30N 16°55' W 061°49'3 6.6
2018-Jan-03 22:00N 16°58' W 061°50'3 5.1
2018-Jan-03 21:30N 17°00' W 061°50'0 0.1
2018-Jan-03 20:59N 17°00' W 061°50'0 0.0
2018-Jan-03 20:29N 17°00' W 061°50'0 0.0
2018-Jan-03 19:59N 17°00' W 061°50'0 0.0
2018-Jan-03 19:29N 17°00' W 061°50'0 0.0
2018-Jan-03 18:59N 17°00' W 061°50'0 0.0
2018-Jan-03 18:29N 17°00' W 061°50'1 2.7
2018-Jan-03 18:00N 17°01' W 061°51'4 4.3
2018-Jan-03 17:11N 17°03' W 061°54'1 4.9
2018-Jan-03 17:00N 17°04' W 061°54'1 0.1
2018-Jan-02 23:09N 17°04' W 061°53'0 3.4
2018-Jan-02 23:00N 17°04' W 061°53'2 3.6
2018-Jan-02 22:30N 17°05' W 061°55'2 3.9
2018-Jan-02 22:00N 17°07' W 061°55'4 8.2
2018-Jan-02 21:30N 17°11' W 061°55'4 8.6
2018-Jan-02 21:00N 17°15' W 061°54'4 8.8
2018-Jan-02 20:31N 17°20' W 061°54'4 8.7
2018-Jan-02 20:00N 17°24' W 061°54'4 7.9
2018-Jan-02 19:30N 17°28' W 061°54'5 8.2
2018-Jan-02 18:54N 17°33' W 061°54'  

Dump ship's entire track history